sensor_id;sensor_type;location;lat;lon;timestamp;temperature;humidity
7445;DHT22;3764;48.126;11.594;2022-07-22T00:01:25;20.70;99.90
7445;DHT22;3764;48.126;11.594;2022-07-22T00:03:52;20.70;99.90
7445;DHT22;3764;48.126;11.594;2022-07-22T00:06:19;20.60;99.90
7445;DHT22;3764;48.126;11.594;2022-07-22T00:08:48;20.70;99.90
7445;DHT22;3764;48.126;11.594;2022-07-22T00:11:21;20.70;99.90
7445;DHT22;3764;48.126;11.594;2022-07-22T00:13:48;20.70;99.90
7445;DHT22;3764;48.126;11.594;2022-07-22T00:16:15;20.70;99.90
7445;DHT22;3764;48.126;11.594;2022-07-22T00:18:43;20.70;99.90
7445;DHT22;3764;48.126;11.594;2022-07-22T00:21:10;20.80;99.90
7445;DHT22;3764;48.126;11.594;2022-07-22T00:23:37;20.80;99.90
7445;DHT22;3764;48.126;11.594;2022-07-22T00:26:06;20.80;99.90
7445;DHT22;3764;48.126;11.594;2022-07-22T00:28:33;20.80;99.90
7445;DHT22;3764;48.126;11.594;2022-07-22T00:31:00;20.70;99.90
7445;DHT22;3764;48.126;11.594;2022-07-22T00:33:27;20.70;99.90
7445;DHT22;3764;48.126;11.594;2022-07-22T00:35:54;20.70;99.90
7445;DHT22;3764;48.126;11.594;2022-07-22T00:38:21;20.70;99.90
7445;DHT22;3764;48.126;11.594;2022-07-22T00:40:48;20.70;99.90
7445;DHT22;3764;48.126;11.594;2022-07-22T00:43:17;20.60;99.90
7445;DHT22;3764;48.126;11.594;2022-07-22T00:45:44;20.60;99.90
7445;DHT22;3764;48.126;11.594;2022-07-22T00:48:11;20.50;99.90
7445;DHT22;3764;48.126;11.594;2022-07-22T00:50:38;20.50;99.90
7445;DHT22;3764;48.126;11.594;2022-07-22T00:53:05;20.50;99.90
7445;DHT22;3764;48.126;11.594;2022-07-22T00:55:33;20.50;99.90
7445;DHT22;3764;48.126;11.594;2022-07-22T00:58:01;20.60;99.90
7445;DHT22;3764;48.126;11.594;2022-07-22T01:00:30;20.50;99.90
7445;DHT22;3764;48.126;11.594;2022-07-22T01:02:58;20.40;99.90
7445;DHT22;3764;48.126;11.594;2022-07-22T01:05:25;20.40;99.90
7445;DHT22;3764;48.126;11.594;2022-07-22T01:07:52;20.40;99.90
7445;DHT22;3764;48.126;11.594;2022-07-22T01:10:19;20.50;99.90
7445;DHT22;3764;48.126;11.594;2022-07-22T01:12:46;20.50;99.90
7445;DHT22;3764;48.126;11.594;2022-07-22T01:15:14;20.50;99.90
7445;DHT22;3764;48.126;11.594;2022-07-22T01:17:42;20.50;99.90
7445;DHT22;3764;48.126;11.594;2022-07-22T01:20:11;20.50;99.90
7445;DHT22;3764;48.126;11.594;2022-07-22T01:22:38;20.40;99.90
7445;DHT22;3764;48.126;11.594;2022-07-22T01:25:06;20.40;99.90
7445;DHT22;3764;48.126;11.594;2022-07-22T01:27:33;20.40;99.90
7445;DHT22;3764;48.126;11.594;2022-07-22T01:30:00;20.40;99.90
7445;DHT22;3764;48.126;11.594;2022-07-22T01:32:27;20.40;99.90
7445;DHT22;3764;48.126;11.594;2022-07-22T01:34:54;20.50;99.90
7445;DHT22;3764;48.126;11.594;2022-07-22T01:37:23;20.40;99.90
7445;DHT22;3764;48.126;11.594;2022-07-22T01:39:50;20.40;99.90
7445;DHT22;3764;48.126;11.594;2022-07-22T01:42:17;20.40;99.90
7445;DHT22;3764;48.126;11.594;2022-07-22T01:44:45;20.50;99.90
7445;DHT22;3764;48.126;11.594;2022-07-22T01:47:12;20.50;99.90
7445;DHT22;3764;48.126;11.594;2022-07-22T01:49:39;20.50;99.90
7445;DHT22;3764;48.126;11.594;2022-07-22T01:52:06;20.40;99.90
7445;DHT22;3764;48.126;11.594;2022-07-22T01:54:35;20.40;99.90
7445;DHT22;3764;48.126;11.594;2022-07-22T01:57:02;20.40;99.90
7445;DHT22;3764;48.126;11.594;2022-07-22T01:59:29;20.40;99.90
7445;DHT22;3764;48.126;11.594;2022-07-22T02:01:56;20.40;99.90
7445;DHT22;3764;48.126;11.594;2022-07-22T02:04:23;20.40;99.90
7445;DHT22;3764;48.126;11.594;2022-07-22T02:06:50;20.40;99.90
7445;DHT22;3764;48.126;11.594;2022-07-22T02:09:17;20.40;99.90
7445;DHT22;3764;48.126;11.594;2022-07-22T02:11:46;20.40;99.90
7445;DHT22;3764;48.126;11.594;2022-07-22T02:14:13;20.40;99.90
7445;DHT22;3764;48.126;11.594;2022-07-22T02:16:40;20.30;99.90
7445;DHT22;3764;48.126;11.594;2022-07-22T02:19:07;20.30;99.90
7445;DHT22;3764;48.126;11.594;2022-07-22T02:21:34;20.30;99.90
7445;DHT22;3764;48.126;11.594;2022-07-22T02:24:01;20.30;99.90
7445;DHT22;3764;48.126;11.594;2022-07-22T02:26:28;20.30;99.90
7445;DHT22;3764;48.126;11.594;2022-07-22T02:28:57;20.30;99.90
7445;DHT22;3764;48.126;11.594;2022-07-22T02:31:24;20.30;99.90
7445;DHT22;3764;48.126;11.594;2022-07-22T02:33:52;20.30;99.90
7445;DHT22;3764;48.126;11.594;2022-07-22T02:36:19;20.30;99.90
7445;DHT22;3764;48.126;11.594;2022-07-22T02:38:46;20.20;99.90
7445;DHT22;3764;48.126;11.594;2022-07-22T02:41:13;20.20;99.90
7445;DHT22;3764;48.126;11.594;2022-07-22T02:43:41;20.10;99.90
7445;DHT22;3764;48.126;11.594;2022-07-22T02:46:09;20.10;99.90
7445;DHT22;3764;48.126;11.594;2022-07-22T02:48:36;20.10;99.90
7445;DHT22;3764;48.126;11.594;2022-07-22T02:51:04;20.10;99.90
7445;DHT22;3764;48.126;11.594;2022-07-22T02:53:31;20.10;99.90
7445;DHT22;3764;48.126;11.594;2022-07-22T02:55:58;20.10;99.90
7445;DHT22;3764;48.126;11.594;2022-07-22T02:58:25;20.10;99.90
7445;DHT22;3764;48.126;11.594;2022-07-22T03:00:52;20.10;99.90
7445;DHT22;3764;48.126;11.594;2022-07-22T03:03:20;20.10;99.90
7445;DHT22;3764;48.126;11.594;2022-07-22T03:05:48;20.10;99.90
7445;DHT22;3764;48.126;11.594;2022-07-22T03:08:15;20.10;99.90
7445;DHT22;3764;48.126;11.594;2022-07-22T03:10:42;20.10;99.90
7445;DHT22;3764;48.126;11.594;2022-07-22T03:13:09;20.10;99.90
7445;DHT22;3764;48.126;11.594;2022-07-22T03:15:36;20.10;99.90
7445;DHT22;3764;48.126;11.594;2022-07-22T03:18:03;20.10;99.90
7445;DHT22;3764;48.126;11.594;2022-07-22T03:20:32;20.10;99.90
7445;DHT22;3764;48.126;11.594;2022-07-22T03:23:00;20.10;99.90
7445;DHT22;3764;48.126;11.594;2022-07-22T03:25:27;20.10;99.90
7445;DHT22;3764;48.126;11.594;2022-07-22T03:27:56;20.10;99.90
7445;DHT22;3764;48.126;11.594;2022-07-22T03:30:23;20.10;99.90
7445;DHT22;3764;48.126;11.594;2022-07-22T03:32:50;20.10;99.90
7445;DHT22;3764;48.126;11.594;2022-07-22T03:35:18;20.00;99.90
7445;DHT22;3764;48.126;11.594;2022-07-22T03:37:47;20.00;99.90
7445;DHT22;3764;48.126;11.594;2022-07-22T03:40:14;20.00;99.90
7445;DHT22;3764;48.126;11.594;2022-07-22T03:42:41;20.00;99.90
7445;DHT22;3764;48.126;11.594;2022-07-22T03:45:09;20.00;99.90
7445;DHT22;3764;48.126;11.594;2022-07-22T03:47:37;20.00;99.90
7445;DHT22;3764;48.126;11.594;2022-07-22T03:50:05;20.00;99.90
7445;DHT22;3764;48.126;11.594;2022-07-22T03:52:32;19.90;99.90
7445;DHT22;3764;48.126;11.594;2022-07-22T03:55:00;19.90;99.90
7445;DHT22;3764;48.126;11.594;2022-07-22T03:57:28;19.80;99.90
7445;DHT22;3764;48.126;11.594;2022-07-22T03:59:55;19.70;99.90
7445;DHT22;3764;48.126;11.594;2022-07-22T04:02:22;19.60;99.90
7445;DHT22;3764;48.126;11.594;2022-07-22T04:04:49;19.40;99.90
7445;DHT22;3764;48.126;11.594;2022-07-22T04:07:16;19.40;99.90
7445;DHT22;3764;48.126;11.594;2022-07-22T04:09:43;19.30;99.90
7445;DHT22;3764;48.126;11.594;2022-07-22T04:12:11;19.20;99.90
7445;DHT22;3764;48.126;11.594;2022-07-22T04:14:38;19.20;99.90
7445;DHT22;3764;48.126;11.594;2022-07-22T04:17:06;19.20;99.90
7445;DHT22;3764;48.126;11.594;2022-07-22T04:19:33;19.30;99.90
7445;DHT22;3764;48.126;11.594;2022-07-22T04:22:00;19.40;99.90
7445;DHT22;3764;48.126;11.594;2022-07-22T04:24:27;19.40;99.90
7445;DHT22;3764;48.126;11.594;2022-07-22T04:26:54;19.50;99.90
7445;DHT22;3764;48.126;11.594;2022-07-22T04:29:22;19.50;99.90
7445;DHT22;3764;48.126;11.594;2022-07-22T04:31:49;19.60;99.90
7445;DHT22;3764;48.126;11.594;2022-07-22T04:34:17;19.60;99.90
7445;DHT22;3764;48.126;11.594;2022-07-22T04:36:44;19.70;99.90
7445;DHT22;3764;48.126;11.594;2022-07-22T04:39:11;19.70;99.90
7445;DHT22;3764;48.126;11.594;2022-07-22T04:41:38;19.70;99.90
7445;DHT22;3764;48.126;11.594;2022-07-22T04:44:05;19.70;99.90
7445;DHT22;3764;48.126;11.594;2022-07-22T04:46:33;19.70;99.90
7445;DHT22;3764;48.126;11.594;2022-07-22T04:49:00;19.70;99.90
7445;DHT22;3764;48.126;11.594;2022-07-22T04:51:28;19.80;99.90
7445;DHT22;3764;48.126;11.594;2022-07-22T04:53:55;19.80;99.90
7445;DHT22;3764;48.126;11.594;2022-07-22T04:56:22;19.90;99.90
7445;DHT22;3764;48.126;11.594;2022-07-22T04:58:49;19.80;99.90
7445;DHT22;3764;48.126;11.594;2022-07-22T05:01:17;19.90;99.90
7445;DHT22;3764;48.126;11.594;2022-07-22T05:03:45;19.90;99.90
7445;DHT22;3764;48.126;11.594;2022-07-22T05:06:12;19.90;99.90
7445;DHT22;3764;48.126;11.594;2022-07-22T05:08:40;19.90;99.90
7445;DHT22;3764;48.126;11.594;2022-07-22T05:11:07;20.00;99.90
7445;DHT22;3764;48.126;11.594;2022-07-22T05:13:34;20.00;99.90
7445;DHT22;3764;48.126;11.594;2022-07-22T05:16:02;20.00;99.90
7445;DHT22;3764;48.126;11.594;2022-07-22T05:18:30;19.90;99.90
7445;DHT22;3764;48.126;11.594;2022-07-22T05:20:59;19.90;99.90
7445;DHT22;3764;48.126;11.594;2022-07-22T05:23:26;20.00;99.90
7445;DHT22;3764;48.126;11.594;2022-07-22T05:25:53;19.90;99.90
7445;DHT22;3764;48.126;11.594;2022-07-22T05:28:20;19.90;99.90
7445;DHT22;3764;48.126;11.594;2022-07-22T05:30:50;19.90;99.90
7445;DHT22;3764;48.126;11.594;2022-07-22T05:33:17;19.80;99.90
7445;DHT22;3764;48.126;11.594;2022-07-22T05:35:44;19.80;99.90
7445;DHT22;3764;48.126;11.594;2022-07-22T05:38:13;19.90;99.90
7445;DHT22;3764;48.126;11.594;2022-07-22T05:40:41;19.90;99.90
7445;DHT22;3764;48.126;11.594;2022-07-22T05:43:08;19.90;99.90
7445;DHT22;3764;48.126;11.594;2022-07-22T05:45:35;19.90;99.90
7445;DHT22;3764;48.126;11.594;2022-07-22T05:48:03;19.90;99.90
7445;DHT22;3764;48.126;11.594;2022-07-22T05:50:30;19.90;99.90
7445;DHT22;3764;48.126;11.594;2022-07-22T05:52:57;20.00;99.90
7445;DHT22;3764;48.126;11.594;2022-07-22T05:55:25;20.00;99.90
7445;DHT22;3764;48.126;11.594;2022-07-22T05:57:52;20.00;99.90
7445;DHT22;3764;48.126;11.594;2022-07-22T06:00:19;20.10;99.90
7445;DHT22;3764;48.126;11.594;2022-07-22T06:02:47;20.10;99.90
7445;DHT22;3764;48.126;11.594;2022-07-22T06:05:14;20.20;99.90
7445;DHT22;3764;48.126;11.594;2022-07-22T06:07:41;20.20;99.90
7445;DHT22;3764;48.126;11.594;2022-07-22T06:10:08;20.30;99.90
7445;DHT22;3764;48.126;11.594;2022-07-22T06:12:37;20.30;99.90
7445;DHT22;3764;48.126;11.594;2022-07-22T06:15:05;20.40;99.90
7445;DHT22;3764;48.126;11.594;2022-07-22T06:17:32;20.40;99.90
7445;DHT22;3764;48.126;11.594;2022-07-22T06:20:00;20.40;99.90
7445;DHT22;3764;48.126;11.594;2022-07-22T06:22:27;20.50;99.90
7445;DHT22;3764;48.126;11.594;2022-07-22T06:24:54;20.50;99.90
7445;DHT22;3764;48.126;11.594;2022-07-22T06:27:21;20.60;99.90
7445;DHT22;3764;48.126;11.594;2022-07-22T06:29:50;20.60;99.90
7445;DHT22;3764;48.126;11.594;2022-07-22T06:32:17;20.60;99.90
7445;DHT22;3764;48.126;11.594;2022-07-22T06:34:44;20.70;99.90
7445;DHT22;3764;48.126;11.594;2022-07-22T06:37:11;20.70;99.90
7445;DHT22;3764;48.126;11.594;2022-07-22T06:39:38;20.70;99.90
7445;DHT22;3764;48.126;11.594;2022-07-22T06:42:05;20.80;99.90
7445;DHT22;3764;48.126;11.594;2022-07-22T06:44:32;20.80;99.90
7445;DHT22;3764;48.126;11.594;2022-07-22T06:47:01;20.80;99.90
7445;DHT22;3764;48.126;11.594;2022-07-22T06:49:28;20.90;99.90
7445;DHT22;3764;48.126;11.594;2022-07-22T06:51:55;20.90;99.90
7445;DHT22;3764;48.126;11.594;2022-07-22T06:54:22;21.00;99.90
7445;DHT22;3764;48.126;11.594;2022-07-22T06:56:49;21.00;99.90
7445;DHT22;3764;48.126;11.594;2022-07-22T06:59:16;21.00;99.90
7445;DHT22;3764;48.126;11.594;2022-07-22T07:01:43;21.10;99.90
7445;DHT22;3764;48.126;11.594;2022-07-22T07:04:12;21.10;99.90
7445;DHT22;3764;48.126;11.594;2022-07-22T07:06:39;21.20;99.90
7445;DHT22;3764;48.126;11.594;2022-07-22T07:09:07;21.30;99.90
7445;DHT22;3764;48.126;11.594;2022-07-22T07:11:34;21.30;99.90
7445;DHT22;3764;48.126;11.594;2022-07-22T07:14:01;21.40;99.90
7445;DHT22;3764;48.126;11.594;2022-07-22T07:16:29;21.40;99.90
7445;DHT22;3764;48.126;11.594;2022-07-22T07:18:56;21.50;99.90
7445;DHT22;3764;48.126;11.594;2022-07-22T07:21:24;21.50;99.90
7445;DHT22;3764;48.126;11.594;2022-07-22T07:23:52;21.50;99.90
7445;DHT22;3764;48.126;11.594;2022-07-22T07:26:19;21.60;99.90
7445;DHT22;3764;48.126;11.594;2022-07-22T07:28:46;21.60;99.90
7445;DHT22;3764;48.126;11.594;2022-07-22T07:31:13;21.70;99.90
7445;DHT22;3764;48.126;11.594;2022-07-22T07:33:40;21.70;99.90
7445;DHT22;3764;48.126;11.594;2022-07-22T07:36:08;21.80;99.90
7445;DHT22;3764;48.126;11.594;2022-07-22T07:38:36;21.80;99.90
7445;DHT22;3764;48.126;11.594;2022-07-22T07:41:04;21.80;99.90
7445;DHT22;3764;48.126;11.594;2022-07-22T07:43:31;21.90;99.90
7445;DHT22;3764;48.126;11.594;2022-07-22T07:45:58;21.90;99.90
7445;DHT22;3764;48.126;11.594;2022-07-22T07:48:25;22.00;99.90
7445;DHT22;3764;48.126;11.594;2022-07-22T07:50:52;22.00;99.90
7445;DHT22;3764;48.126;11.594;2022-07-22T07:53:19;22.10;99.90
7445;DHT22;3764;48.126;11.594;2022-07-22T07:55:48;22.10;99.90
7445;DHT22;3764;48.126;11.594;2022-07-22T07:58:16;22.20;99.90
7445;DHT22;3764;48.126;11.594;2022-07-22T08:00:43;22.20;99.90
7445;DHT22;3764;48.126;11.594;2022-07-22T08:03:11;22.30;99.90
7445;DHT22;3764;48.126;11.594;2022-07-22T08:05:38;22.30;99.90
7445;DHT22;3764;48.126;11.594;2022-07-22T08:08:06;22.40;99.90
7445;DHT22;3764;48.126;11.594;2022-07-22T08:10:33;22.40;99.90
7445;DHT22;3764;48.126;11.594;2022-07-22T08:13:02;22.50;99.90
7445;DHT22;3764;48.126;11.594;2022-07-22T08:15:30;22.50;99.90
7445;DHT22;3764;48.126;11.594;2022-07-22T08:17:57;22.60;99.90
7445;DHT22;3764;48.126;11.594;2022-07-22T08:20:25;22.70;99.90
7445;DHT22;3764;48.126;11.594;2022-07-22T08:22:53;22.70;99.90
7445;DHT22;3764;48.126;11.594;2022-07-22T08:25:21;22.70;99.90
7445;DHT22;3764;48.126;11.594;2022-07-22T08:27:48;22.80;99.90
7445;DHT22;3764;48.126;11.594;2022-07-22T08:30:18;22.80;99.90
7445;DHT22;3764;48.126;11.594;2022-07-22T08:32:45;22.90;99.90
7445;DHT22;3764;48.126;11.594;2022-07-22T08:35:12;23.00;99.90
7445;DHT22;3764;48.126;11.594;2022-07-22T08:37:40;23.00;99.90
7445;DHT22;3764;48.126;11.594;2022-07-22T08:40:08;23.00;99.90
7445;DHT22;3764;48.126;11.594;2022-07-22T08:42:37;23.10;99.90
7445;DHT22;3764;48.126;11.594;2022-07-22T08:45:06;23.10;99.90
7445;DHT22;3764;48.126;11.594;2022-07-22T08:47:34;23.20;99.90
7445;DHT22;3764;48.126;11.594;2022-07-22T08:50:03;23.30;99.90
7445;DHT22;3764;48.126;11.594;2022-07-22T08:52:30;23.30;99.90
7445;DHT22;3764;48.126;11.594;2022-07-22T08:54:57;23.30;99.90
7445;DHT22;3764;48.126;11.594;2022-07-22T08:57:24;23.40;99.90
7445;DHT22;3764;48.126;11.594;2022-07-22T08:59:53;23.50;99.90
7445;DHT22;3764;48.126;11.594;2022-07-22T09:02:20;23.50;99.90
7445;DHT22;3764;48.126;11.594;2022-07-22T09:04:55;23.60;99.90
7445;DHT22;3764;48.126;11.594;2022-07-22T09:07:31;23.70;99.90
7445;DHT22;3764;48.126;11.594;2022-07-22T09:10:00;23.70;99.90
7445;DHT22;3764;48.126;11.594;2022-07-22T09:12:28;23.80;99.90
7445;DHT22;3764;48.126;11.594;2022-07-22T09:15:00;23.80;99.90
7445;DHT22;3764;48.126;11.594;2022-07-22T09:17:29;23.90;99.90
7445;DHT22;3764;48.126;11.594;2022-07-22T09:19:59;23.90;99.90
7445;DHT22;3764;48.126;11.594;2022-07-22T09:22:36;24.00;99.90
7445;DHT22;3764;48.126;11.594;2022-07-22T09:25:26;24.10;99.90
7445;DHT22;3764;48.126;11.594;2022-07-22T09:27:55;24.20;99.90
7445;DHT22;3764;48.126;11.594;2022-07-22T09:30:24;24.20;99.90
7445;DHT22;3764;48.126;11.594;2022-07-22T09:32:54;24.30;99.90
7445;DHT22;3764;48.126;11.594;2022-07-22T09:35:23;24.30;99.90
7445;DHT22;3764;48.126;11.594;2022-07-22T09:37:53;24.30;99.90
7445;DHT22;3764;48.126;11.594;2022-07-22T09:40:22;24.40;99.90
7445;DHT22;3764;48.126;11.594;2022-07-22T09:42:52;24.40;99.90
7445;DHT22;3764;48.126;11.594;2022-07-22T09:45:21;24.50;99.90
7445;DHT22;3764;48.126;11.594;2022-07-22T09:47:49;24.50;99.90
7445;DHT22;3764;48.126;11.594;2022-07-22T09:50:18;24.60;99.90
7445;DHT22;3764;48.126;11.594;2022-07-22T09:52:48;24.60;99.90
7445;DHT22;3764;48.126;11.594;2022-07-22T09:55:17;24.60;99.90
7445;DHT22;3764;48.126;11.594;2022-07-22T09:57:45;24.70;99.90
7445;DHT22;3764;48.126;11.594;2022-07-22T10:00:14;24.80;99.90
7445;DHT22;3764;48.126;11.594;2022-07-22T10:02:46;24.80;99.90
7445;DHT22;3764;48.126;11.594;2022-07-22T10:05:16;24.80;99.90
7445;DHT22;3764;48.126;11.594;2022-07-22T10:07:44;24.90;99.90
7445;DHT22;3764;48.126;11.594;2022-07-22T10:10:14;24.90;99.90
7445;DHT22;3764;48.126;11.594;2022-07-22T10:12:43;25.00;99.90
7445;DHT22;3764;48.126;11.594;2022-07-22T10:15:11;25.00;99.90
7445;DHT22;3764;48.126;11.594;2022-07-22T10:17:40;25.00;99.90
7445;DHT22;3764;48.126;11.594;2022-07-22T10:20:12;25.10;99.90
7445;DHT22;3764;48.126;11.594;2022-07-22T10:22:57;25.10;99.90
7445;DHT22;3764;48.126;11.594;2022-07-22T10:25:27;25.20;99.90
7445;DHT22;3764;48.126;11.594;2022-07-22T10:27:57;25.30;99.90
7445;DHT22;3764;48.126;11.594;2022-07-22T10:30:26;25.30;99.90
7445;DHT22;3764;48.126;11.594;2022-07-22T10:33:08;25.30;99.90
7445;DHT22;3764;48.126;11.594;2022-07-22T10:35:37;25.40;99.90
7445;DHT22;3764;48.126;11.594;2022-07-22T10:38:07;25.50;99.90
7445;DHT22;3764;48.126;11.594;2022-07-22T10:40:49;25.50;99.90
7445;DHT22;3764;48.126;11.594;2022-07-22T10:43:17;25.60;99.90
7445;DHT22;3764;48.126;11.594;2022-07-22T10:45:48;25.60;99.90
7445;DHT22;3764;48.126;11.594;2022-07-22T10:48:18;25.70;99.90
7445;DHT22;3764;48.126;11.594;2022-07-22T10:50:48;25.70;99.90
7445;DHT22;3764;48.126;11.594;2022-07-22T10:53:18;25.80;99.90
7445;DHT22;3764;48.126;11.594;2022-07-22T10:56:15;25.90;99.90
7445;DHT22;3764;48.126;11.594;2022-07-22T10:58:53;26.00;99.90
7445;DHT22;3764;48.126;11.594;2022-07-22T11:01:24;26.00;99.90
7445;DHT22;3764;48.126;11.594;2022-07-22T11:03:51;26.10;99.90
7445;DHT22;3764;48.126;11.594;2022-07-22T11:06:23;26.20;99.90
7445;DHT22;3764;48.126;11.594;2022-07-22T11:08:52;26.20;99.90
7445;DHT22;3764;48.126;11.594;2022-07-22T11:11:34;26.20;99.90
7445;DHT22;3764;48.126;11.594;2022-07-22T11:14:02;26.30;99.90
7445;DHT22;3764;48.126;11.594;2022-07-22T11:16:29;26.40;99.90
7445;DHT22;3764;48.126;11.594;2022-07-22T11:18:58;26.40;99.90
7445;DHT22;3764;48.126;11.594;2022-07-22T11:21:26;26.40;99.90
7445;DHT22;3764;48.126;11.594;2022-07-22T11:23:55;26.40;99.90
7445;DHT22;3764;48.126;11.594;2022-07-22T11:26:25;26.50;99.90
7445;DHT22;3764;48.126;11.594;2022-07-22T11:28:57;26.50;99.90
7445;DHT22;3764;48.126;11.594;2022-07-22T11:31:25;26.60;99.90
7445;DHT22;3764;48.126;11.594;2022-07-22T11:34:05;26.60;99.90
7445;DHT22;3764;48.126;11.594;2022-07-22T11:36:33;26.60;99.90
7445;DHT22;3764;48.126;11.594;2022-07-22T11:39:01;26.60;99.90
7445;DHT22;3764;48.126;11.594;2022-07-22T11:41:29;26.70;99.90
7445;DHT22;3764;48.126;11.594;2022-07-22T11:43:58;26.70;99.90
7445;DHT22;3764;48.126;11.594;2022-07-22T11:46:27;26.70;99.90
7445;DHT22;3764;48.126;11.594;2022-07-22T11:48:55;26.70;99.90
7445;DHT22;3764;48.126;11.594;2022-07-22T11:51:29;26.80;99.90
7445;DHT22;3764;48.126;11.594;2022-07-22T11:53:57;26.80;99.90
7445;DHT22;3764;48.126;11.594;2022-07-22T11:56:25;26.90;99.90
7445;DHT22;3764;48.126;11.594;2022-07-22T11:58:52;27.00;99.90
7445;DHT22;3764;48.126;11.594;2022-07-22T12:01:23;26.90;99.90
7445;DHT22;3764;48.126;11.594;2022-07-22T12:03:53;27.00;99.90
7445;DHT22;3764;48.126;11.594;2022-07-22T12:06:21;27.00;99.90
7445;DHT22;3764;48.126;11.594;2022-07-22T12:08:51;27.20;99.90
7445;DHT22;3764;48.126;11.594;2022-07-22T12:11:19;27.20;99.90
7445;DHT22;3764;48.126;11.594;2022-07-22T12:13:49;27.30;99.90
7445;DHT22;3764;48.126;11.594;2022-07-22T12:16:25;27.40;99.90
7445;DHT22;3764;48.126;11.594;2022-07-22T12:18:55;27.40;99.90
7445;DHT22;3764;48.126;11.594;2022-07-22T12:21:24;27.50;99.90
7445;DHT22;3764;48.126;11.594;2022-07-22T12:23:53;27.60;99.90
7445;DHT22;3764;48.126;11.594;2022-07-22T12:26:36;27.60;99.90
7445;DHT22;3764;48.126;11.594;2022-07-22T12:29:19;27.70;99.90
7445;DHT22;3764;48.126;11.594;2022-07-22T12:31:48;27.80;99.90
7445;DHT22;3764;48.126;11.594;2022-07-22T12:34:17;27.80;99.90
7445;DHT22;3764;48.126;11.594;2022-07-22T12:36:45;27.90;99.90
7445;DHT22;3764;48.126;11.594;2022-07-22T12:39:15;28.00;99.90
7445;DHT22;3764;48.126;11.594;2022-07-22T12:41:48;28.10;99.90
7445;DHT22;3764;48.126;11.594;2022-07-22T12:46:47;28.30;99.90
7445;DHT22;3764;48.126;11.594;2022-07-22T12:49:16;28.40;99.90
7445;DHT22;3764;48.126;11.594;2022-07-22T12:52:05;28.40;99.90
7445;DHT22;3764;48.126;11.594;2022-07-22T12:54:33;28.60;99.90
7445;DHT22;3764;48.126;11.594;2022-07-22T12:57:00;28.60;99.90
7445;DHT22;3764;48.126;11.594;2022-07-22T12:59:27;28.60;99.90
7445;DHT22;3764;48.126;11.594;2022-07-22T13:01:56;28.70;99.90
7445;DHT22;3764;48.126;11.594;2022-07-22T13:04:23;28.70;99.90
7445;DHT22;3764;48.126;11.594;2022-07-22T13:06:50;28.80;99.90
7445;DHT22;3764;48.126;11.594;2022-07-22T13:09:18;28.80;99.90
7445;DHT22;3764;48.126;11.594;2022-07-22T13:11:45;28.80;99.90
7445;DHT22;3764;48.126;11.594;2022-07-22T13:14:13;28.80;99.90
7445;DHT22;3764;48.126;11.594;2022-07-22T13:16:40;28.70;99.90
7445;DHT22;3764;48.126;11.594;2022-07-22T13:19:09;28.70;99.90
7445;DHT22;3764;48.126;11.594;2022-07-22T13:21:36;28.60;99.90
7445;DHT22;3764;48.126;11.594;2022-07-22T13:24:04;28.70;99.90
7445;DHT22;3764;48.126;11.594;2022-07-22T13:26:31;28.70;99.90
7445;DHT22;3764;48.126;11.594;2022-07-22T13:28:58;28.70;99.90
7445;DHT22;3764;48.126;11.594;2022-07-22T13:31:25;28.80;99.90
7445;DHT22;3764;48.126;11.594;2022-07-22T13:33:52;28.70;99.90
7445;DHT22;3764;48.126;11.594;2022-07-22T13:36:21;28.80;99.90
7445;DHT22;3764;48.126;11.594;2022-07-22T13:38:49;28.70;99.90
7445;DHT22;3764;48.126;11.594;2022-07-22T13:41:17;28.70;99.90
7445;DHT22;3764;48.126;11.594;2022-07-22T13:43:45;28.70;99.90
7445;DHT22;3764;48.126;11.594;2022-07-22T13:46:14;28.70;99.90
7445;DHT22;3764;48.126;11.594;2022-07-22T13:48:42;28.70;99.90
7445;DHT22;3764;48.126;11.594;2022-07-22T13:51:09;28.70;99.90
7445;DHT22;3764;48.126;11.594;2022-07-22T13:53:38;28.70;99.90
7445;DHT22;3764;48.126;11.594;2022-07-22T13:56:07;28.80;99.90
7445;DHT22;3764;48.126;11.594;2022-07-22T13:58:35;28.80;99.90
7445;DHT22;3764;48.126;11.594;2022-07-22T14:01:03;28.80;99.90
7445;DHT22;3764;48.126;11.594;2022-07-22T14:03:30;28.90;99.90
7445;DHT22;3764;48.126;11.594;2022-07-22T14:05:57;28.90;99.90
7445;DHT22;3764;48.126;11.594;2022-07-22T14:08:24;28.90;99.90
7445;DHT22;3764;48.126;11.594;2022-07-22T14:10:53;28.90;99.90
7445;DHT22;3764;48.126;11.594;2022-07-22T14:13:20;29.00;99.90
7445;DHT22;3764;48.126;11.594;2022-07-22T14:15:47;29.20;99.90
7445;DHT22;3764;48.126;11.594;2022-07-22T14:18:14;29.30;99.90
7445;DHT22;3764;48.126;11.594;2022-07-22T14:20:41;29.30;99.90
7445;DHT22;3764;48.126;11.594;2022-07-22T14:23:08;29.30;99.90
7445;DHT22;3764;48.126;11.594;2022-07-22T14:25:37;29.30;99.90
7445;DHT22;3764;48.126;11.594;2022-07-22T14:28:06;29.40;99.90
7445;DHT22;3764;48.126;11.594;2022-07-22T14:30:33;29.40;99.90
7445;DHT22;3764;48.126;11.594;2022-07-22T14:33:02;29.30;99.90
7445;DHT22;3764;48.126;11.594;2022-07-22T14:35:29;29.30;99.90
7445;DHT22;3764;48.126;11.594;2022-07-22T14:37:59;29.30;99.90
7445;DHT22;3764;48.126;11.594;2022-07-22T14:40:27;29.20;99.90
7445;DHT22;3764;48.126;11.594;2022-07-22T14:42:54;29.20;99.90
7445;DHT22;3764;48.126;11.594;2022-07-22T14:45:22;29.20;99.90
7445;DHT22;3764;48.126;11.594;2022-07-22T14:47:50;29.20;99.90
7445;DHT22;3764;48.126;11.594;2022-07-22T14:50:17;29.20;99.90
7445;DHT22;3764;48.126;11.594;2022-07-22T14:52:44;29.20;99.90
7445;DHT22;3764;48.126;11.594;2022-07-22T14:55:12;29.20;99.90
7445;DHT22;3764;48.126;11.594;2022-07-22T14:57:39;29.20;99.90
7445;DHT22;3764;48.126;11.594;2022-07-22T15:00:06;29.30;99.90
7445;DHT22;3764;48.126;11.594;2022-07-22T15:02:35;29.30;99.90
7445;DHT22;3764;48.126;11.594;2022-07-22T15:05:03;29.40;99.90
7445;DHT22;3764;48.126;11.594;2022-07-22T15:07:30;29.50;99.90
7445;DHT22;3764;48.126;11.594;2022-07-22T15:09:57;29.60;99.90
7445;DHT22;3764;48.126;11.594;2022-07-22T15:12:24;29.80;99.90
7445;DHT22;3764;48.126;11.594;2022-07-22T15:14:52;29.90;99.90
7445;DHT22;3764;48.126;11.594;2022-07-22T15:17:19;30.00;99.90
7445;DHT22;3764;48.126;11.594;2022-07-22T15:19:47;30.20;99.90
7445;DHT22;3764;48.126;11.594;2022-07-22T15:22:14;30.40;99.90
7445;DHT22;3764;48.126;11.594;2022-07-22T15:24:42;30.70;99.90
7445;DHT22;3764;48.126;11.594;2022-07-22T15:27:09;30.90;99.90
7445;DHT22;3764;48.126;11.594;2022-07-22T15:29:36;31.00;99.90
7445;DHT22;3764;48.126;11.594;2022-07-22T15:32:04;31.10;99.40
7445;DHT22;3764;48.126;11.594;2022-07-22T15:34:32;31.10;99.10
7445;DHT22;3764;48.126;11.594;2022-07-22T15:37:01;31.10;99.90
7445;DHT22;3764;48.126;11.594;2022-07-22T15:39:28;31.10;99.30
7445;DHT22;3764;48.126;11.594;2022-07-22T15:41:55;31.20;99.90
7445;DHT22;3764;48.126;11.594;2022-07-22T15:44:22;31.30;99.90
7445;DHT22;3764;48.126;11.594;2022-07-22T15:46:49;31.30;99.80
7445;DHT22;3764;48.126;11.594;2022-07-22T15:49:17;31.30;99.80
7445;DHT22;3764;48.126;11.594;2022-07-22T15:51:44;31.30;99.90
7445;DHT22;3764;48.126;11.594;2022-07-22T15:54:12;31.30;99.30